Cscc Shanghai — C6XA5 — position and weather

sailwx.info

Track history (hours):
 
Tides and Currents Weather Stations Pressure Air Temp Water Temp Dewpoint Dewpoint Depression Visibility Wind Speed Wind Dir Waves Ship Positions

Cscc Shanghai

Last reported at 2018-Jun-17 08:30 UTC. Time now 2018-Jun-19 04:16 UTC.
Position N 37°34' E 024°03'.

Length 176 m; draft 8.2 m.

Type: Cargo ship. MMSI: 311003600.

Date/timePositionNaut miles runAvg speedWind from/ knotsBaromVisibWave heightAir tempDewpointWater temp
2018-Jun-17 08:30N 37°34' E 024°03'46017.0
2018-Jun-16 05:32N 36°41' E 014°30'119.2
2018-Jun-16 05:30N 36°41' E 014°29'54118.9
2018-Jun-15 00:50N 39°01' E 003°27'2418.7
2018-Jun-14 23:33N 39°06' E 002°57'118.9
2018-Jun-14 23:29N 39°06' E 002°55'918.8
2018-Jun-14 23:00N 39°08' E 002°44'918.8
2018-Jun-14 22:30N 39°10' E 002°32'1018.4
2018-Jun-14 21:59N 39°12' E 002°20'3718.6
2018-Jun-14 20:00N 39°18' E 001°33'7218.2
2018-Jun-14 16:03N 39°33' E 000°01'218.3
2018-Jun-14 15:57N 39°34' W 000°01'1016.7
2018-Jun-14 15:21N 39°38' W 000°12'0 0.0
2018-Jun-14 02:18N 39°38' W 000°12'2 7.3
2018-Jun-14 01:59N 39°36' W 000°10'9013.4
2018-Jun-13 19:16N 38°07' W 000°03'415.8
2018-Jun-13 19:00N 38°03' W 000°06'1415.8
2018-Jun-13 18:06N 37°51' W 000°16'215.9
2018-Jun-13 18:00N 37°50' W 000°17'815.9
2018-Jun-13 17:30N 37°43' W 000°23'816.1
2018-Jun-13 17:00N 37°37' W 000°28'816.1
2018-Jun-13 16:30N 37°31' W 000°35'816.5
2018-Jun-13 16:00N 37°25' W 000°42'816.2
2018-Jun-13 15:30N 37°19' W 000°49'816.0
2018-Jun-13 15:00N 37°14' W 000°57'816.1
2018-Jun-13 14:30N 37°08' W 001°04'816.7
2018-Jun-13 14:00N 37°03' W 001°12'19017.9
2018-Jun-13 03:24N 36°01' W 004°55'1022.2
2018-Jun-13 02:56N 36°01' W 005°08'921.9
2018-Jun-13 02:30N 35°60' W 005°19'1020.9
2018-Jun-13 02:00N 35°57' W 005°32'1019.1
2018-Jun-13 01:29N 35°54' W 005°44'1119.1
2018-Jun-13 00:56N 35°54' W 005°57'24215.9
2018-Jun-12 09:41N 38°19' W 009°60'418.0
2018-Jun-12 09:29N 38°22' W 010°01'918.1
2018-Jun-12 09:00N 38°31' W 010°03'918.1
2018-Jun-12 08:30N 38°40' W 010°06'918.1
2018-Jun-12 08:00N 38°49' W 010°06'917.9
2018-Jun-12 07:30N 38°58' W 010°06'918.2
2018-Jun-12 07:00N 39°07' W 010°07'918.2
2018-Jun-12 06:29N 39°16' W 010°07'55717.7
2018-Jun-10 22:59N 48°10' W 006°24'2617.9
2018-Jun-10 21:33N 48°32' W 006°06'2318.5
2018-Jun-10 20:19N 48°52' W 005°48'619.0
2018-Jun-10 20:00N 48°56' W 005°41'1319.3
2018-Jun-10 19:21N 49°03' W 005°26'6718.2
2018-Jun-10 15:40N 49°49' W 004°11'417.6
2018-Jun-10 15:27N 49°52' W 004°06'817.6
2018-Jun-10 15:00N 49°57' W 003°57'917.6
2018-Jun-10 14:30N 50°03' W 003°47'1817.8
2018-Jun-10 13:30N 50°16' W 003°29'815.8
2018-Jun-10 13:00N 50°24' W 003°26'612.6
2018-Jun-10 12:31N 50°25' W 003°16'918.9
2018-Jun-10 12:01N 50°26' W 003°02'1019.4
2018-Jun-10 11:31N 50°26' W 002°46'1019.8
2018-Jun-10 11:00N 50°26' W 002°31'1020.5
2018-Jun-10 10:30N 50°27' W 002°15'1020.7
2018-Jun-10 10:01N 50°27' W 001°59'1020.4
2018-Jun-10 09:30N 50°28' W 001°42'1020.0
2018-Jun-10 09:00N 50°28' W 001°27'1019.6
2018-Jun-10 08:31N 50°29' W 001°11'1018.9
2018-Jun-10 08:00N 50°29' W 000°57'918.2
2018-Jun-10 07:30N 50°29' W 000°42'917.3
2018-Jun-10 07:01N 50°29' W 000°29'917.1
2018-Jun-10 06:31N 50°30' W 000°15'816.8
2018-Jun-10 06:01N 50°31' W 000°02'916.6
2018-Jun-10 05:29N 50°33' E 000°11'816.6
2018-Jun-10 05:01N 50°35' E 000°23'917.1
2018-Jun-10 04:31N 50°37' E 000°36'917.8
2018-Jun-10 04:00N 50°42' E 000°48'918.6
2018-Jun-10 03:31N 50°47' E 000°60'1019.3
2018-Jun-10 03:01N 50°53' E 001°12'1019.7
2018-Jun-10 02:30N 50°59' E 001°24'1019.6
2018-Jun-10 02:01N 51°06' E 001°35'918.8
2018-Jun-10 01:31N 51°13' E 001°46'918.2
2018-Jun-10 01:01N 51°20' E 001°54'815.1
2018-Jun-10 00:31N 51°24' E 002°05'917.9
2018-Jun-10 00:00N 51°21' E 002°19'917.3
2018-Jun-09 23:31N 51°23' E 002°32'816.4
2018-Jun-09 23:00N 51°22' E 002°45'714.1
2018-Jun-09 22:30N 51°23' E 002°56'714.5
2018-Jun-09 22:00N 51°24' E 003°08'714.7
2018-Jun-09 21:30N 51°24' E 003°20'714.2
2018-Jun-09 21:00N 51°25' E 003°31'610.7
2018-Jun-09 20:29N 51°26' E 003°40'612.8
2018-Jun-09 20:00N 51°22' E 003°46'612.8
2018-Jun-09 19:30N 51°23' E 003°56'4 8.4
2018-Jun-09 19:00N 51°25' E 004°02'510.4
2018-Jun-09 18:31N 51°23' E 004°10'510.1
2018-Jun-09 18:00N 51°20' E 004°16'3 7.0
2018-Jun-09 17:30N 51°17' E 004°15'0 0.0
2018-Jun-09 17:00N 51°17' E 004°15'1 1.1
2018-Jun-09 16:30N 51°16' E 004°14'1 1.8
2018-Jun-09 15:59N 51°16' E 004°13'0 0.0
2018-Jun-09 14:56N 51°16' E 004°13'0 0.0
2018-Jun-09 14:29N 51°16' E 004°13'0 0.0
2018-Jun-09 13:59N 51°16' E 004°13'0 0.0
2018-Jun-09 13:29N 51°16' E 004°13'0 0.0
2018-Jun-09 12:56N 51°16' E 004°13'0 0.0
2018-Jun-09 12:29N 51°16' E 004°13'0 0.0
2018-Jun-09 11:59N 51°16' E 004°13'0 0.0
2018-Jun-09 11:29N 51°16' E 004°13'0 0.0
2018-Jun-09 10:59N 51°16' E 004°13'0 0.0
2018-Jun-09 10:29N 51°16' E 004°13'0 0.0
2018-Jun-09 09:59N 51°16' E 004°13'0 0.0
2018-Jun-09 09:29N 51°16' E 004°13'0 0.0
2018-Jun-09 08:59N 51°16' E 004°13'0 0.0
2018-Jun-09 08:29N 51°16' E 004°13'0 0.0
2018-Jun-09 07:59N 51°16' E 004°13'0 0.0
2018-Jun-09 07:29N 51°16' E 004°13'0 0.0
2018-Jun-09 06:59N 51°16' E 004°13'0 0.0
2018-Jun-09 06:29N 51°16' E 004°13'0 0.0
2018-Jun-09 05:59N 51°16' E 004°13'0 0.0
2018-Jun-09 05:29N 51°16' E 004°13'0 0.0
2018-Jun-09 04:56N 51°16' E 004°13'0 0.0
2018-Jun-09 04:29N 51°16' E 004°13'0 0.0
2018-Jun-09 03:59N 51°16' E 004°13'0 0.0
2018-Jun-09 03:29N 51°16' E 004°13'0 0.0
2018-Jun-09 02:59N 51°16' E 004°13'0 0.0
2018-Jun-09 02:29N 51°16' E 004°13'0 0.0
2018-Jun-09 01:59N 51°16' E 004°13'0 0.0
2018-Jun-09 01:29N 51°16' E 004°13'0 0.0
2018-Jun-09 00:59N 51°16' E 004°13'0 0.0
2018-Jun-09 00:29N 51°16' E 004°13'0 0.0
2018-Jun-08 23:59N 51°16' E 004°13'1 1.5
2018-Jun-08 23:31N 51°17' E 004°14'1 1.6
2018-Jun-08 23:00N 51°17' E 004°15'0 0.0
2018-Jun-08 22:30N 51°17' E 004°15'1 2.4
2018-Jun-08 22:00N 51°18' E 004°16'4 7.6
2018-Jun-08 21:30N 51°21' E 004°14'4 8.7
2018-Jun-08 21:00N 51°22' E 004°07'612.7
2018-Jun-08 20:31N 51°26' E 003°59'816.1
2018-Jun-08 20:00N 51°21' E 003°49'815.7
2018-Jun-08 19:31N 51°26' E 003°41'1 2.7
2018-Jun-08 18:59N 51°28' E 003°41'0 0.0
2018-Jun-08 18:29N 51°28' E 003°41'0 0.0
2018-Jun-08 17:59N 51°28' E 003°41'0 0.0
2018-Jun-08 17:29N 51°28' E 003°41'0 0.0
2018-Jun-08 16:59N 51°28' E 003°41'0 0.0
2018-Jun-08 16:29N 51°28' E 003°41'0 0.0
2018-Jun-08 15:59N 51°28' E 003°41'0 0.0
2018-Jun-08 15:29N 51°28' E 003°41'0 0.0
2018-Jun-08 14:59N 51°28' E 003°41'0 0.0
2018-Jun-08 14:29N 51°28' E 003°41'0 0.0
2018-Jun-08 13:53N 51°28' E 003°41'0 0.0
2018-Jun-08 13:29N 51°28' E 003°41'0 0.0
2018-Jun-08 12:59N 51°28' E 003°41'0 0.0
2018-Jun-08 12:29N 51°28' E 003°41'0 0.0
2018-Jun-08 11:59N 51°28' E 003°41'0 0.0
2018-Jun-08 11:29N 51°28' E 003°41'0 0.0
2018-Jun-08 10:59N 51°28' E 003°41'0 0.0
2018-Jun-08 10:29N 51°28' E 003°41'0 0.0
2018-Jun-08 09:59N 51°28' E 003°41'0 0.0
2018-Jun-08 09:29N 51°28' E 003°41'0 0.3
2018-Jun-08 09:01N 51°27' E 003°41'4 7.7
2018-Jun-08 08:30N 51°26' E 003°35'713.4
2018-Jun-08 08:00N 51°30' E 003°27'714.1
2018-Jun-08 07:30N 51°37' E 003°22'815.9
2018-Jun-08 07:00N 51°43' E 003°15'713.7
2018-Jun-08 06:30N 51°50' E 003°17'815.1
2018-Jun-08 06:00N 51°58' E 003°19'815.9
2018-Jun-08 05:30N 52°06' E 003°21'815.5
2018-Jun-08 05:01N 52°13' E 003°21'816.0
2018-Jun-08 04:30N 52°21' E 003°25'816.1
2018-Jun-08 04:00N 52°29' E 003°28'816.2
2018-Jun-08 03:31N 52°37' E 003°30'816.2
2018-Jun-08 03:00N 52°43' E 003°39'816.1
2018-Jun-08 02:31N 52°50' E 003°47'916.7
2018-Jun-08 01:59N 52°56' E 003°56'917.5
2018-Jun-08 01:30N 53°02' E 004°06'816.9
2018-Jun-08 01:00N 53°08' E 004°17'816.3
2018-Jun-08 00:30N 53°14' E 004°25'816.3
2018-Jun-08 00:00N 53°21' E 004°31'816.2
2018-Jun-07 23:31N 53°28' E 004°37'816.6
2018-Jun-07 23:01N 53°32' E 004°50'816.9
2018-Jun-07 22:30N 53°35' E 005°03'917.4
2018-Jun-07 22:01N 53°38' E 005°17'917.9
2018-Jun-07 21:31N 53°40' E 005°32'918.1
2018-Jun-07 21:00N 53°43' E 005°47'918.3
2018-Jun-07 20:31N 53°45' E 006°02'815.3
2018-Jun-07 20:00N 53°40' E 006°13'714.0
2018-Jun-07 19:29N 53°37' E 006°24'917.2
2018-Jun-07 18:59N 53°35' E 006°38'918.8
2018-Jun-07 18:30N 53°29' E 006°49'816.5
2018-Jun-07 18:00N 53°23' E 006°58'510.7
2018-Jun-07 17:30N 53°20' E 007°05'3 6.1
2018-Jun-07 16:58N 53°20' E 007°11'0 0.0
2018-Jun-07 16:25N 53°20' E 007°11'0 0.0
2018-Jun-07 15:58N 53°20' E 007°11'0 0.0
2018-Jun-07 15:28N 53°20' E 007°11'0 0.0
2018-Jun-07 14:55N 53°20' E 007°11'0 0.0
2018-Jun-07 14:28N 53°20' E 007°11'0 0.0
2018-Jun-07 13:58N 53°20' E 007°11'0 0.0
2018-Jun-07 13:28N 53°20' E 007°11'0 0.0
2018-Jun-07 12:58N 53°20' E 007°11'0 0.0
2018-Jun-07 12:28N 53°20' E 007°11'0 0.0
2018-Jun-07 11:58N 53°20' E 007°11'0 0.0
2018-Jun-07 11:25N 53°20' E 007°11'0 0.0
2018-Jun-07 10:58N 53°20' E 007°11'0 0.0
2018-Jun-07 10:22N 53°20' E 007°11'0 0.0
2018-Jun-07 09:58N 53°20' E 007°11'0 0.0
2018-Jun-07 09:28N 53°20' E 007°11'0 0.0
2018-Jun-07 08:58N 53°20' E 007°11'  
Track history (hours):
 
Tides and Currents Weather Stations Pressure Air Temp Water Temp Dewpoint Dewpoint Depression Visibility Wind Speed Wind Dir Waves Ship Positions

Cscc Shanghai

Last reported at 2018-Jun-17 08:30 UTC. Time now 2018-Jun-19 04:16 UTC.
Position N 37°34' E 024°03'.

Length 176 m; draft 8.2 m.

Type: Cargo ship. MMSI: 311003600.

Date/timePositionNaut miles runAvg speedWind from/ knotsBaromVisibWave heightAir tempDewpointWater temp
2018-Jun-17 08:30N 37°34' E 024°03'46017.0
2018-Jun-16 05:32N 36°41' E 014°30'119.2
2018-Jun-16 05:30N 36°41' E 014°29'54118.9
2018-Jun-15 00:50N 39°01' E 003°27'2418.7
2018-Jun-14 23:33N 39°06' E 002°57'118.9
2018-Jun-14 23:29N 39°06' E 002°55'918.8
2018-Jun-14 23:00N 39°08' E 002°44'918.8
2018-Jun-14 22:30N 39°10' E 002°32'1018.4
2018-Jun-14 21:59N 39°12' E 002°20'3718.6
2018-Jun-14 20:00N 39°18' E 001°33'7218.2
2018-Jun-14 16:03N 39°33' E 000°01'218.3
2018-Jun-14 15:57N 39°34' W 000°01'1016.7
2018-Jun-14 15:21N 39°38' W 000°12'0 0.0
2018-Jun-14 02:18N 39°38' W 000°12'2 7.3
2018-Jun-14 01:59N 39°36' W 000°10'9013.4
2018-Jun-13 19:16N 38°07' W 000°03'415.8
2018-Jun-13 19:00N 38°03' W 000°06'1415.8
2018-Jun-13 18:06N 37°51' W 000°16'215.9
2018-Jun-13 18:00N 37°50' W 000°17'815.9
2018-Jun-13 17:30N 37°43' W 000°23'816.1
2018-Jun-13 17:00N 37°37' W 000°28'816.1
2018-Jun-13 16:30N 37°31' W 000°35'816.5
2018-Jun-13 16:00N 37°25' W 000°42'816.2
2018-Jun-13 15:30N 37°19' W 000°49'816.0
2018-Jun-13 15:00N 37°14' W 000°57'816.1
2018-Jun-13 14:30N 37°08' W 001°04'816.7
2018-Jun-13 14:00N 37°03' W 001°12'19017.9
2018-Jun-13 03:24N 36°01' W 004°55'1022.2
2018-Jun-13 02:56N 36°01' W 005°08'921.9
2018-Jun-13 02:30N 35°60' W 005°19'1020.9
2018-Jun-13 02:00N 35°57' W 005°32'1019.1
2018-Jun-13 01:29N 35°54' W 005°44'1119.1
2018-Jun-13 00:56N 35°54' W 005°57'24215.9
2018-Jun-12 09:41N 38°19' W 009°60'418.0
2018-Jun-12 09:29N 38°22' W 010°01'918.1
2018-Jun-12 09:00N 38°31' W 010°03'918.1
2018-Jun-12 08:30N 38°40' W 010°06'918.1
2018-Jun-12 08:00N 38°49' W 010°06'917.9
2018-Jun-12 07:30N 38°58' W 010°06'918.2
2018-Jun-12 07:00N 39°07' W 010°07'918.2
2018-Jun-12 06:29N 39°16' W 010°07'55717.7
2018-Jun-10 22:59N 48°10' W 006°24'2617.9
2018-Jun-10 21:33N 48°32' W 006°06'2318.5
2018-Jun-10 20:19N 48°52' W 005°48'619.0
2018-Jun-10 20:00N 48°56' W 005°41'1319.3
2018-Jun-10 19:21N 49°03' W 005°26'6718.2
2018-Jun-10 15:40N 49°49' W 004°11'417.6
2018-Jun-10 15:27N 49°52' W 004°06'817.6
2018-Jun-10 15:00N 49°57' W 003°57'917.6
2018-Jun-10 14:30N 50°03' W 003°47'1817.8
2018-Jun-10 13:30N 50°16' W 003°29'815.8
2018-Jun-10 13:00N 50°24' W 003°26'612.6
2018-Jun-10 12:31N 50°25' W 003°16'918.9
2018-Jun-10 12:01N 50°26' W 003°02'1019.4
2018-Jun-10 11:31N 50°26' W 002°46'1019.8
2018-Jun-10 11:00N 50°26' W 002°31'1020.5
2018-Jun-10 10:30N 50°27' W 002°15'1020.7
2018-Jun-10 10:01N 50°27' W 001°59'1020.4
2018-Jun-10 09:30N 50°28' W 001°42'1020.0
2018-Jun-10 09:00N 50°28' W 001°27'1019.6
2018-Jun-10 08:31N 50°29' W 001°11'1018.9
2018-Jun-10 08:00N 50°29' W 000°57'918.2
2018-Jun-10 07:30N 50°29' W 000°42'917.3
2018-Jun-10 07:01N 50°29' W 000°29'917.1
2018-Jun-10 06:31N 50°30' W 000°15'816.8
2018-Jun-10 06:01N 50°31' W 000°02'916.6
2018-Jun-10 05:29N 50°33' E 000°11'816.6
2018-Jun-10 05:01N 50°35' E 000°23'917.1
2018-Jun-10 04:31N 50°37' E 000°36'917.8
2018-Jun-10 04:00N 50°42' E 000°48'918.6
2018-Jun-10 03:31N 50°47' E 000°60'1019.3
2018-Jun-10 03:01N 50°53' E 001°12'1019.7
2018-Jun-10 02:30N 50°59' E 001°24'1019.6
2018-Jun-10 02:01N 51°06' E 001°35'918.8
2018-Jun-10 01:31N 51°13' E 001°46'918.2
2018-Jun-10 01:01N 51°20' E 001°54'815.1
2018-Jun-10 00:31N 51°24' E 002°05'917.9
2018-Jun-10 00:00N 51°21' E 002°19'917.3
2018-Jun-09 23:31N 51°23' E 002°32'816.4
2018-Jun-09 23:00N 51°22' E 002°45'714.1
2018-Jun-09 22:30N 51°23' E 002°56'714.5
2018-Jun-09 22:00N 51°24' E 003°08'714.7
2018-Jun-09 21:30N 51°24' E 003°20'714.2
2018-Jun-09 21:00N 51°25' E 003°31'610.7
2018-Jun-09 20:29N 51°26' E 003°40'612.8
2018-Jun-09 20:00N 51°22' E 003°46'612.8
2018-Jun-09 19:30N 51°23' E 003°56'4 8.4
2018-Jun-09 19:00N 51°25' E 004°02'510.4
2018-Jun-09 18:31N 51°23' E 004°10'510.1
2018-Jun-09 18:00N 51°20' E 004°16'3 7.0
2018-Jun-09 17:30N 51°17' E 004°15'0 0.0
2018-Jun-09 17:00N 51°17' E 004°15'1 1.1
2018-Jun-09 16:30N 51°16' E 004°14'1 1.8
2018-Jun-09 15:59N 51°16' E 004°13'0 0.0
2018-Jun-09 14:56N 51°16' E 004°13'0 0.0
2018-Jun-09 14:29N 51°16' E 004°13'0 0.0
2018-Jun-09 13:59N 51°16' E 004°13'0 0.0
2018-Jun-09 13:29N 51°16' E 004°13'0 0.0
2018-Jun-09 12:56N 51°16' E 004°13'0 0.0
2018-Jun-09 12:29N 51°16' E 004°13'0 0.0
2018-Jun-09 11:59N 51°16' E 004°13'0 0.0
2018-Jun-09 11:29N 51°16' E 004°13'0 0.0
2018-Jun-09 10:59N 51°16' E 004°13'0 0.0
2018-Jun-09 10:29N 51°16' E 004°13'0 0.0
2018-Jun-09 09:59N 51°16' E 004°13'0 0.0
2018-Jun-09 09:29N 51°16' E 004°13'0 0.0
2018-Jun-09 08:59N 51°16' E 004°13'0 0.0
2018-Jun-09 08:29N 51°16' E 004°13'0 0.0
2018-Jun-09 07:59N 51°16' E 004°13'0 0.0
2018-Jun-09 07:29N 51°16' E 004°13'0 0.0
2018-Jun-09 06:59N 51°16' E 004°13'0 0.0
2018-Jun-09 06:29N 51°16' E 004°13'0 0.0
2018-Jun-09 05:59N 51°16' E 004°13'0 0.0
2018-Jun-09 05:29N 51°16' E 004°13'0 0.0
2018-Jun-09 04:56N 51°16' E 004°13'0 0.0
2018-Jun-09 04:29N 51°16' E 004°13'0 0.0
2018-Jun-09 03:59N 51°16' E 004°13'0 0.0
2018-Jun-09 03:29N 51°16' E 004°13'0 0.0
2018-Jun-09 02:59N 51°16' E 004°13'0 0.0
2018-Jun-09 02:29N 51°16' E 004°13'0 0.0
2018-Jun-09 01:59N 51°16' E 004°13'0 0.0
2018-Jun-09 01:29N 51°16' E 004°13'0 0.0
2018-Jun-09 00:59N 51°16' E 004°13'0 0.0
2018-Jun-09 00:29N 51°16' E 004°13'0 0.0
2018-Jun-08 23:59N 51°16' E 004°13'1 1.5
2018-Jun-08 23:31N 51°17' E 004°14'1 1.6
2018-Jun-08 23:00N 51°17' E 004°15'0 0.0
2018-Jun-08 22:30N 51°17' E 004°15'1 2.4
2018-Jun-08 22:00N 51°18' E 004°16'4 7.6
2018-Jun-08 21:30N 51°21' E 004°14'4 8.7
2018-Jun-08 21:00N 51°22' E 004°07'612.7
2018-Jun-08 20:31N 51°26' E 003°59'816.1
2018-Jun-08 20:00N 51°21' E 003°49'815.7
2018-Jun-08 19:31N 51°26' E 003°41'1 2.7
2018-Jun-08 18:59N 51°28' E 003°41'0 0.0
2018-Jun-08 18:29N 51°28' E 003°41'0 0.0
2018-Jun-08 17:59N 51°28' E 003°41'0 0.0
2018-Jun-08 17:29N 51°28' E 003°41'0 0.0
2018-Jun-08 16:59N 51°28' E 003°41'0 0.0
2018-Jun-08 16:29N 51°28' E 003°41'0 0.0
2018-Jun-08 15:59N 51°28' E 003°41'0 0.0
2018-Jun-08 15:29N 51°28' E 003°41'0 0.0
2018-Jun-08 14:59N 51°28' E 003°41'0 0.0
2018-Jun-08 14:29N 51°28' E 003°41'0 0.0
2018-Jun-08 13:53N 51°28' E 003°41'0 0.0
2018-Jun-08 13:29N 51°28' E 003°41'0 0.0
2018-Jun-08 12:59N 51°28' E 003°41'0 0.0
2018-Jun-08 12:29N 51°28' E 003°41'0 0.0
2018-Jun-08 11:59N 51°28' E 003°41'0 0.0
2018-Jun-08 11:29N 51°28' E 003°41'0 0.0
2018-Jun-08 10:59N 51°28' E 003°41'0 0.0
2018-Jun-08 10:29N 51°28' E 003°41'0 0.0
2018-Jun-08 09:59N 51°28' E 003°41'0 0.0
2018-Jun-08 09:29N 51°28' E 003°41'0 0.3
2018-Jun-08 09:01N 51°27' E 003°41'4 7.7
2018-Jun-08 08:30N 51°26' E 003°35'713.4
2018-Jun-08 08:00N 51°30' E 003°27'714.1
2018-Jun-08 07:30N 51°37' E 003°22'815.9
2018-Jun-08 07:00N 51°43' E 003°15'713.7
2018-Jun-08 06:30N 51°50' E 003°17'815.1
2018-Jun-08 06:00N 51°58' E 003°19'815.9
2018-Jun-08 05:30N 52°06' E 003°21'815.5
2018-Jun-08 05:01N 52°13' E 003°21'816.0
2018-Jun-08 04:30N 52°21' E 003°25'816.1
2018-Jun-08 04:00N 52°29' E 003°28'816.2
2018-Jun-08 03:31N 52°37' E 003°30'816.2
2018-Jun-08 03:00N 52°43' E 003°39'816.1
2018-Jun-08 02:31N 52°50' E 003°47'916.7
2018-Jun-08 01:59N 52°56' E 003°56'917.5
2018-Jun-08 01:30N 53°02' E 004°06'816.9
2018-Jun-08 01:00N 53°08' E 004°17'816.3
2018-Jun-08 00:30N 53°14' E 004°25'816.3
2018-Jun-08 00:00N 53°21' E 004°31'816.2
2018-Jun-07 23:31N 53°28' E 004°37'816.6
2018-Jun-07 23:01N 53°32' E 004°50'816.9
2018-Jun-07 22:30N 53°35' E 005°03'917.4
2018-Jun-07 22:01N 53°38' E 005°17'917.9
2018-Jun-07 21:31N 53°40' E 005°32'918.1
2018-Jun-07 21:00N 53°43' E 005°47'918.3
2018-Jun-07 20:31N 53°45' E 006°02'815.3
2018-Jun-07 20:00N 53°40' E 006°13'714.0
2018-Jun-07 19:29N 53°37' E 006°24'917.2
2018-Jun-07 18:59N 53°35' E 006°38'918.8
2018-Jun-07 18:30N 53°29' E 006°49'816.5
2018-Jun-07 18:00N 53°23' E 006°58'510.7
2018-Jun-07 17:30N 53°20' E 007°05'3 6.1
2018-Jun-07 16:58N 53°20' E 007°11'0 0.0
2018-Jun-07 16:25N 53°20' E 007°11'0 0.0
2018-Jun-07 15:58N 53°20' E 007°11'0 0.0
2018-Jun-07 15:28N 53°20' E 007°11'0 0.0
2018-Jun-07 14:55N 53°20' E 007°11'0 0.0
2018-Jun-07 14:28N 53°20' E 007°11'0 0.0
2018-Jun-07 13:58N 53°20' E 007°11'0 0.0
2018-Jun-07 13:28N 53°20' E 007°11'0 0.0
2018-Jun-07 12:58N 53°20' E 007°11'0 0.0
2018-Jun-07 12:28N 53°20' E 007°11'0 0.0
2018-Jun-07 11:58N 53°20' E 007°11'0 0.0
2018-Jun-07 11:25N 53°20' E 007°11'0 0.0
2018-Jun-07 10:58N 53°20' E 007°11'0 0.0
2018-Jun-07 10:22N 53°20' E 007°11'0 0.0
2018-Jun-07 09:58N 53°20' E 007°11'0 0.0
2018-Jun-07 09:28N 53°20' E 007°11'0 0.0
2018-Jun-07 08:58N 53°20' E 007°11'  

Dump ship's entire track history